Racecast

Belle Easton

Temperance Bedford (MI) · 8 · SECMI D1MONROE · Compare head to head

Athlete rating 153.4 2016 XC season
Best race 158.5 XC
Races 29
Seasons 2 2015 — 2016

RankedNation #161·MI #54·Team #1 ?

Rating scale ?

Cross Country

2016 XC 145.0

Temperance Bedford (MI) · Grade 8

Date Meet Event Result Place Rating Difficulty PR/SR Flags
2016-10-15 Munson Park 3200m 12:44 1st · 1st on team 149.7 +0.034 ★CR CSR
2016-10-12 Heritage Park (Adrian) OFFICIAL 3218m 12:49 1st · 1st on team 150.3 +0.046 ★CR CSR
2016-09-28 Hudson Mills Metropark - OFFICIAL 3218m 12:22.2 1st · 1st on team 158.5 +0.062 ★PR ★CR ★R SR CSR RSR
2016-09-24 Maumee Bay State Park 3218m 12:59.2 1st · 1st on team 136.9 -0.033 ★CR SR CSR
2016-09-14 Rolling Hills 3000m 11:54 1st · 1st on team 153.4 +0.071 ★PR ★CR SR CSR RSR
2016-09-10 Hedges Boyer Park 3200m 12:42 1st · 1st on team 132.7 -0.089 ★PR ★CR SR CSR
2016-09-01 Eastwood HS 3200m 13:00.1 3rd · 1st on team 133.4 -0.060 ★CR SR CSR RSR

2015 XC 141.0

Temperance Bedford (MI) · Grade 7

Date Meet Event Result Place Rating Difficulty PR/SR Flags
2015-10-24 Hudson Mills Metropark - OFFICIAL 2414m 12:41.1 9th · 1st on team 106.1 +0.025 ★PR ★CR SR CSR
2015-10-17 Munson Park 3200m 12:44.4 1st · 1st on team 148.1 +0.034 PR CR SR CSR
2015-10-14 Munson Park 3200m 12:46.1 3rd · 2nd on team 146.7 +0.034 PR CR SR CSR
2015-09-30 Hudson Mills Metropark - OFFICIAL 3200m 12:47.3 4th · 1st on team 152.5 +0.062 PR ★CR SR CSR
2015-09-26 Sterling State Park 3218m 12:56 2nd · 1st on team 151.3 +0.057 PR ★CR SR CSR
2015-09-16 Mill Pond Park 3621m 14:41.2 1st · 1st on team 157.0 +0.099 ★PR ★CR R SR CSR RSR
2015-09-12 Hedges Boyer Park 3200m 13:12 3rd · 1st on team 125.5 -0.089 PR CR R SR CSR RSR

Track & Field

2016 TF 125.9

Temperance Bedford (MI) · Grade 7

Date Meet Event Result Place Rating Difficulty PR/SR Flags
2016-05-18 Saline Hornet MS Relays 1600m 5:52.37 2nd · 1st on team 124.9 -0.042
2016-05-17 Bedford @ Chelsea 55mh 11.69 14th · 3rd on team -0.029 ★PR SR
2016-05-17 Bedford @ Chelsea 800m 2:38.53 1st · 1st on team 126.1 -0.029
2016-05-12 Bedford at Lincoln 1600m 5:45 1st · 1st on team 129.1 -0.032 ★PR SR RSR
2016-05-09 Dexter Mill Creek @ Bedford lj 10'6.5 -0.033
2016-05-09 Dexter Mill Creek @ Bedford 800m 2:36 1st · 1st on team 127.9 -0.033 ★PR SR RSR
2016-05-05 Bedford MS @ Saline MS 800m 2:37 2nd · 1st on team 126.8 -0.038 PR SR RSR
2016-05-02 Bedford at Ypsilanti lj 8'10 -0.029
2016-05-02 Bedford at Ypsilanti 800m 2:42 1st · 1st on team 123.4 -0.029
2016-04-28 Monroe @ Bedford lj 9'7.5 -0.033
2016-04-28 Monroe @ Bedford 800m 2:41 2nd · 2nd on team 125.1 -0.033
2016-04-25 Tecumseh @ Bedford lj 9'1 -0.033
2016-04-25 Tecumseh @ Bedford 800m 2:41 1st · 1st on team 123.6 -0.033
2016-04-21 Adrian @ Bedford lj 9'6 -0.033
2016-04-21 Adrian @ Bedford 800m 2:39 1st · 1st on team 126.0 -0.033 PR SR RSR